createdAt,value
2018-08-11T00:00:57.075Z,101042.41
2018-08-11T00:03:25.862Z,101031.98
2018-08-11T00:05:54.555Z,101039.23
2018-08-11T00:08:23.115Z,101043.84
2018-08-11T00:10:51.714Z,101035.09
2018-08-11T00:13:20.438Z,101032.78
2018-08-11T00:15:49.291Z,101034.38
2018-08-11T00:18:17.834Z,101025.61
2018-08-11T00:20:46.435Z,101030.20
2018-08-11T00:23:15.188Z,101033.95
2018-08-11T00:25:43.890Z,101033.84
2018-08-11T00:28:12.638Z,101031.92
2018-08-11T00:30:41.302Z,101031.92
2018-08-11T00:33:10.089Z,101030.81
2018-08-11T00:35:38.772Z,101034.59
2018-08-11T00:38:07.382Z,101032.86
2018-08-11T00:40:37.065Z,101026.59
2018-08-11T00:43:05.832Z,101033.26
2018-08-11T00:45:34.438Z,101032.75
2018-08-11T00:48:03.721Z,101032.28
2018-08-11T00:50:35.745Z,101034.20
2018-08-11T00:53:05.255Z,101031.53
2018-08-11T00:55:33.885Z,101028.72
2018-08-11T00:58:02.640Z,101027.97
2018-08-11T01:00:31.359Z,101024.58
2018-08-11T01:03:00.008Z,101018.70
2018-08-11T01:05:28.603Z,101018.39
2018-08-11T01:07:57.263Z,101019.58
2018-08-11T01:10:25.898Z,101019.04
2018-08-11T01:12:54.535Z,101014.68
2018-08-11T01:15:23.675Z,101010.53
2018-08-11T01:17:52.838Z,101009.02
2018-08-11T01:20:21.456Z,101009.52
2018-08-11T01:22:50.743Z,101006.97
2018-08-11T01:25:19.543Z,101007.94
2018-08-11T01:27:48.175Z,101004.37
2018-08-11T01:30:19.718Z,101011.25
2018-08-11T01:32:48.365Z,101008.19
2018-08-11T01:35:17.065Z,101006.86
2018-08-11T01:37:46.322Z,101018.95
2018-08-11T01:40:16.307Z,101020.24
2018-08-11T01:42:46.138Z,101021.21
2018-08-11T01:45:15.578Z,101022.05
2018-08-11T01:47:44.468Z,101023.48
2018-08-11T01:50:14.372Z,101009.20
2018-08-11T01:52:44.399Z,101026.09
2018-08-11T01:55:14.916Z,101030.56
2018-08-11T01:57:43.612Z,101032.66
2018-08-11T02:00:13.801Z,101040.28
2018-08-11T02:02:42.670Z,101031.69
2018-08-11T02:05:12.392Z,101040.65
2018-08-11T02:07:42.503Z,101032.29
2018-08-11T02:10:15.900Z,101032.29
2018-08-11T02:12:44.841Z,101040.80
2018-08-11T02:15:14.351Z,101031.11
2018-08-11T02:17:43.034Z,101036.08
2018-08-11T02:20:13.606Z,101031.33
2018-08-11T02:22:43.422Z,101032.19
2018-08-11T02:25:12.594Z,101021.53
2018-08-11T02:27:41.343Z,100958.32
2018-08-11T02:30:13.324Z,101025.45
2018-08-11T02:32:42.247Z,101028.72
2018-08-11T02:35:11.971Z,101020.44
2018-08-11T02:37:41.113Z,101012.55
2018-08-11T02:40:11.419Z,101018.48
2018-08-11T02:42:40.022Z,101020.02
2018-08-11T02:45:10.439Z,101017.56
2018-08-11T02:47:39.233Z,101015.48
2018-08-11T02:50:09.643Z,101017.41
2018-08-11T02:52:39.387Z,101011.97
2018-08-11T02:55:08.155Z,101007.72
2018-08-11T02:57:36.943Z,101009.78
2018-08-11T03:00:07.536Z,101009.78
2018-08-11T03:02:36.466Z,101003.70
2018-08-11T03:05:05.356Z,101001.64
2018-08-11T03:07:35.159Z,100999.52
2018-08-11T03:10:03.775Z,100988.50
2018-08-11T03:12:32.383Z,100990.98
2018-08-11T03:15:01.024Z,100990.25
2018-08-11T03:17:29.651Z,100990.27
2018-08-11T03:19:58.209Z,100988.02
2018-08-11T03:22:26.868Z,100986.73
2018-08-11T03:24:55.785Z,100991.14
2018-08-11T03:27:24.545Z,100989.86
2018-08-11T03:29:53.123Z,100990.06
2018-08-11T03:32:21.712Z,100984.84
2018-08-11T03:34:50.398Z,100984.94
2018-08-11T03:37:19.034Z,100983.61
2018-08-11T03:39:47.663Z,100980.79
2018-08-11T03:42:16.365Z,100983.16
2018-08-11T03:44:44.932Z,100977.37
2018-08-11T03:47:13.471Z,100974.80
2018-08-11T03:49:42.095Z,100977.57
2018-08-11T03:52:10.783Z,100970.76
2018-08-11T03:54:39.347Z,100977.31
2018-08-11T03:57:07.910Z,100969.63
2018-08-11T03:59:36.634Z,100962.25
2018-08-11T04:02:05.421Z,100961.95
2018-08-11T04:04:34.209Z,100973.66
2018-08-11T04:07:02.792Z,100967.98
2018-08-11T04:09:31.404Z,100968.55
2018-08-11T04:12:00.062Z,100967.58
2018-08-11T04:14:28.590Z,100968.08
2018-08-11T04:16:57.431Z,100970.84
2018-08-11T04:19:26.117Z,100975.66
2018-08-11T04:21:54.749Z,100969.88
2018-08-11T04:24:23.340Z,100967.38
2018-08-11T04:26:51.913Z,100968.91
2018-08-11T04:29:20.549Z,100971.89
2018-08-11T04:31:49.042Z,100966.26
2018-08-11T04:34:17.666Z,100968.94
2018-08-11T04:36:46.246Z,100971.13
2018-08-11T04:39:15.086Z,100969.37
2018-08-11T04:41:44.128Z,100968.25
2018-08-11T04:44:12.789Z,100965.25
2018-08-11T04:46:41.553Z,100965.26
2018-08-11T04:49:10.091Z,100960.22
2018-08-11T04:51:38.647Z,100961.30
2018-08-11T04:54:07.358Z,100949.37
2018-08-11T04:56:35.915Z,100945.94
2018-08-11T04:59:04.568Z,100946.85
2018-08-11T05:01:33.209Z,100942.35
2018-08-11T05:04:01.728Z,100940.12
2018-08-11T05:06:30.392Z,100942.62
2018-08-11T05:08:59.051Z,100936.32
2018-08-11T05:11:27.606Z,100933.42
2018-08-11T05:13:56.190Z,100928.84
2018-08-11T05:16:24.955Z,100926.53
2018-08-11T05:18:53.499Z,100924.96
2018-08-11T05:21:22.224Z,100924.50
2018-08-11T05:23:50.806Z,100925.37
2018-08-11T05:26:19.354Z,100916.16
2018-08-11T05:28:48.077Z,100910.98
2018-08-11T05:31:16.826Z,100911.45
2018-08-11T05:33:46.470Z,100914.16
2018-08-11T05:36:15.182Z,100908.23
2018-08-11T05:38:43.806Z,100917.00
2018-08-11T05:41:12.422Z,100921.24
2018-08-11T05:43:41.110Z,100916.64
2018-08-11T05:46:09.793Z,100914.69
2018-08-11T05:48:38.376Z,100915.08
2018-08-11T05:51:07.607Z,100913.73
2018-08-11T05:53:36.203Z,100902.07
2018-08-11T05:56:05.151Z,100903.53
2018-08-11T05:58:33.732Z,100902.42
2018-08-11T06:01:02.372Z,100903.53
2018-08-11T06:03:31.264Z,100911.06
2018-08-11T06:05:59.971Z,100933.14
2018-08-11T06:08:29.366Z,100930.89
2018-08-11T06:10:57.890Z,100922.36
2018-08-11T06:13:26.431Z,100919.27
2018-08-11T06:15:55.143Z,100938.20
2018-08-11T06:18:23.916Z,100938.27
2018-08-11T06:20:52.616Z,100928.58
2018-08-11T06:23:21.302Z,100932.48
2018-08-11T06:25:50.263Z,100930.33
2018-08-11T06:28:18.763Z,100933.28
2018-08-11T06:30:47.460Z,100922.88
2018-08-11T06:33:16.098Z,100913.20
2018-08-11T06:35:44.728Z,100906.33
2018-08-11T06:38:13.310Z,100906.33
2018-08-11T06:40:42.019Z,100918.56
2018-08-11T06:43:10.603Z,100919.10
2018-08-11T06:45:39.160Z,100911.00
2018-08-11T06:48:07.831Z,100904.59
2018-08-11T06:50:37.199Z,100902.79
2018-08-11T06:53:05.974Z,100897.55
2018-08-11T06:55:34.590Z,100890.59
2018-08-11T06:58:04.425Z,100897.81
2018-08-11T07:00:33.576Z,100889.48
2018-08-11T07:03:02.317Z,100885.28
2018-08-11T07:05:30.896Z,100888.28
2018-08-11T07:07:59.475Z,100895.37
2018-08-11T07:10:27.995Z,100899.17
2018-08-11T07:12:56.646Z,100909.03
2018-08-11T07:15:25.409Z,100885.61
2018-08-11T07:17:53.959Z,100865.48
2018-08-11T07:20:22.703Z,100859.48
2018-08-11T07:22:51.349Z,100857.72
2018-08-11T07:25:19.906Z,100852.20
2018-08-11T07:27:48.507Z,100848.48
2018-08-11T07:30:17.153Z,100852.31
2018-08-11T07:32:45.971Z,100844.05
2018-08-11T07:35:14.506Z,100834.09
2018-08-11T07:37:43.135Z,100819.55
2018-08-11T07:40:11.727Z,100806.52
2018-08-11T07:42:40.459Z,100803.92
2018-08-11T07:45:09.236Z,100793.97
2018-08-11T07:47:38.014Z,100797.62
2018-08-11T07:50:06.677Z,100797.58
2018-08-11T07:52:35.712Z,100792.23
2018-08-11T07:55:04.350Z,100798.19
2018-08-11T07:57:33.139Z,100795.89
2018-08-11T08:00:02.085Z,100785.11
2018-08-11T08:02:30.769Z,100781.34
2018-08-11T08:04:59.551Z,100780.11
2018-08-11T08:07:28.121Z,100773.58
2018-08-11T08:09:56.751Z,100761.34
2018-08-11T08:12:25.879Z,100749.09
2018-08-11T08:14:54.493Z,100739.25
2018-08-11T08:17:23.129Z,100726.15
2018-08-11T08:19:51.764Z,100724.35
2018-08-11T08:22:20.345Z,100716.94
2018-08-11T08:24:49.132Z,100784.66
2018-08-11T08:27:18.474Z,100810.09
2018-08-11T08:29:47.038Z,100829.06
2018-08-11T08:32:15.704Z,100789.64
2018-08-11T08:34:44.491Z,100813.95
2018-08-11T08:37:13.011Z,100796.67
2018-08-11T08:39:41.656Z,100780.79
2018-08-11T08:42:10.751Z,100771.23
2018-08-11T08:44:39.440Z,100756.82
2018-08-11T08:47:08.125Z,100762.42
2018-08-11T08:49:36.805Z,100767.98
2018-08-11T08:52:05.342Z,100778.12
2018-08-11T08:54:34.194Z,100775.03
2018-08-11T08:57:02.973Z,100790.44
2018-08-11T08:59:31.625Z,100809.95
2018-08-11T09:02:00.283Z,100889.78
2018-08-11T09:04:28.919Z,100954.06
2018-08-11T09:06:58.203Z,100957.98
2018-08-11T09:09:26.734Z,100950.70
2018-08-11T09:11:55.323Z,100951.73
2018-08-11T09:14:24.490Z,100917.30
2018-08-11T09:16:53.118Z,100900.78
2018-08-11T09:19:22.367Z,100897.41
2018-08-11T09:21:50.994Z,100882.82
2018-08-11T09:24:19.561Z,100862.72
2018-08-11T09:26:48.213Z,100862.16
2018-08-11T09:29:16.933Z,100864.25
2018-08-11T09:31:45.474Z,100851.73
2018-08-11T09:34:14.478Z,100838.33
2018-08-11T09:36:43.164Z,100842.06
2018-08-11T09:39:12.514Z,100844.37
2018-08-11T09:41:41.399Z,100824.88
2018-08-11T09:44:10.517Z,100836.48
2018-08-11T09:46:39.135Z,100811.63
2018-08-11T09:49:07.811Z,100797.59
2018-08-11T09:51:36.446Z,100787.89
2018-08-11T09:54:05.135Z,100776.70
2018-08-11T09:56:33.685Z,100766.98
2018-08-11T09:59:02.315Z,100764.89
2018-08-11T10:01:36.153Z,100773.25
2018-08-11T10:04:04.743Z,100766.95
2018-08-11T10:06:33.319Z,100762.91
2018-08-11T10:09:01.943Z,100756.20
2018-08-11T10:11:31.220Z,100764.55
2018-08-11T10:13:59.743Z,100765.77
2018-08-11T10:16:28.470Z,100762.80
2018-08-11T10:18:57.054Z,100759.09
2018-08-11T10:21:25.590Z,100754.24
2018-08-11T10:23:54.929Z,100742.64
2018-08-11T10:26:23.436Z,100732.19
2018-08-11T10:28:52.202Z,100736.43
2018-08-11T10:31:21.502Z,100724.92
2018-08-11T10:33:50.037Z,100715.41
2018-08-11T10:36:18.668Z,100705.16
2018-08-11T10:38:47.340Z,100701.95
2018-08-11T10:41:15.938Z,100698.65
2018-08-11T10:43:44.471Z,100700.70
2018-08-11T10:46:13.035Z,100697.90
2018-08-11T10:48:41.626Z,100698.22
2018-08-11T10:51:10.724Z,100686.88
2018-08-11T10:53:39.465Z,100685.66
2018-08-11T10:56:07.975Z,100677.52
2018-08-11T10:58:36.559Z,100679.80
2018-08-11T11:01:05.281Z,100674.17
2018-08-11T11:03:34.124Z,100665.15
2018-08-11T11:06:02.734Z,100664.29
2018-08-11T11:08:31.435Z,100665.60
2018-08-11T11:11:00.022Z,100665.31
2018-08-11T11:13:28.531Z,100669.27
2018-08-11T11:15:57.692Z,100663.13
2018-08-11T11:18:27.931Z,100661.21
2018-08-11T11:20:58.256Z,100656.34
2018-08-11T11:23:26.736Z,100657.97
2018-08-11T11:25:55.395Z,100650.16
2018-08-11T11:28:23.987Z,100641.58
2018-08-11T11:30:52.602Z,100644.54
2018-08-11T11:33:21.197Z,100635.17
2018-08-11T11:35:50.292Z,100634.99
2018-08-11T11:38:18.978Z,100629.31
2018-08-11T11:40:47.722Z,100622.09
2018-08-11T11:43:16.328Z,100620.75
2018-08-11T11:45:44.854Z,100617.11
2018-08-11T11:48:14.946Z,100613.66
2018-08-11T11:50:44.171Z,100612.34
2018-08-11T11:53:14.346Z,100618.74
2018-08-11T11:55:43.561Z,100614.58
2018-08-11T11:58:12.170Z,100608.56
2018-08-11T12:00:40.672Z,100608.48
2018-08-11T12:03:09.311Z,100605.52
2018-08-11T12:05:37.973Z,100605.48
2018-08-11T12:08:06.602Z,100598.14
2018-08-11T12:10:35.262Z,100598.33
2018-08-11T12:13:04.638Z,100601.72
2018-08-11T12:15:33.861Z,100592.36
2018-08-11T12:18:02.389Z,100593.39
2018-08-11T12:20:30.943Z,100590.14
2018-08-11T12:22:59.517Z,100580.09
2018-08-11T12:25:28.015Z,100569.31
2018-08-11T12:27:57.376Z,100567.40
2018-08-11T12:30:25.972Z,100560.25
2018-08-11T12:32:54.555Z,100558.65
2018-08-11T12:35:23.445Z,100561.89
2018-08-11T12:37:52.123Z,100557.95
2018-08-11T12:40:20.611Z,100551.88
2018-08-11T12:42:49.318Z,100548.79
2018-08-11T12:45:17.985Z,100550.17
2018-08-11T12:47:46.606Z,100542.08
2018-08-11T12:50:15.107Z,100547.64
2018-08-11T12:52:43.718Z,100543.19
2018-08-11T12:55:12.276Z,100542.55
2018-08-11T12:57:40.843Z,100538.18
2018-08-11T13:00:10.453Z,100528.80
2018-08-11T13:02:39.238Z,100520.07
2018-08-11T13:05:07.874Z,100527.89
2018-08-11T13:07:36.482Z,100520.87
2018-08-11T13:10:06.330Z,100517.14
2018-08-11T13:12:34.898Z,100514.23
2018-08-11T13:15:03.438Z,100507.67
2018-08-11T13:17:31.939Z,100505.38
2018-08-11T13:20:01.322Z,100512.83
2018-08-11T13:22:29.928Z,100498.66
2018-08-11T13:24:58.586Z,100489.09
2018-08-11T13:27:27.154Z,100488.67
2018-08-11T13:29:55.751Z,100483.52
2018-08-11T13:32:24.337Z,100474.11
2018-08-11T13:34:52.911Z,100480.20
2018-08-11T13:37:21.396Z,100480.30
2018-08-11T13:39:51.978Z,100475.03
2018-08-11T13:42:21.123Z,100470.98
2018-08-11T13:44:49.614Z,100480.41
2018-08-11T13:47:18.106Z,100473.34
2018-08-11T13:49:46.761Z,100471.25
2018-08-11T13:52:15.178Z,100465.50
2018-08-11T13:54:43.679Z,100469.30
2018-08-11T13:57:12.236Z,100453.72
2018-08-11T13:59:40.897Z,100461.00
2018-08-11T14:02:09.547Z,100451.97
2018-08-11T14:04:38.163Z,100453.38
2018-08-11T14:07:06.663Z,100459.12
2018-08-11T14:09:35.998Z,100450.36
2018-08-11T14:12:04.630Z,100447.23
2018-08-11T14:14:33.163Z,100451.88
2018-08-11T14:17:01.756Z,100450.89
2018-08-11T14:19:30.992Z,100451.27
2018-08-11T14:21:59.678Z,100449.20
2018-08-11T14:24:28.569Z,100458.77
2018-08-11T14:26:57.093Z,100455.16
2018-08-11T14:29:25.671Z,100459.33
2018-08-11T14:31:54.419Z,100452.91
2018-08-11T14:34:23.002Z,100443.43
2018-08-11T14:36:51.514Z,100443.60
2018-08-11T14:39:20.372Z,100452.37
2018-08-11T14:41:49.143Z,100447.48
2018-08-11T14:44:17.635Z,100447.38
2018-08-11T14:46:46.286Z,100450.63
2018-08-11T14:49:14.855Z,100447.06
2018-08-11T14:51:43.491Z,100442.16
2018-08-11T14:54:12.034Z,100438.28
2018-08-11T14:56:40.659Z,100440.87
2018-08-11T14:59:09.231Z,100444.40
2018-08-11T15:01:37.978Z,100461.30
2018-08-11T15:04:06.714Z,100468.34
2018-08-11T15:06:35.883Z,100460.20
2018-08-11T15:09:06.485Z,100459.61
2018-08-11T15:11:35.027Z,100466.05
2018-08-11T15:14:03.900Z,100457.09
2018-08-11T15:16:32.556Z,100459.27
2018-08-11T15:19:01.180Z,100458.15
2018-08-11T15:21:30.480Z,100455.84
2018-08-11T15:23:59.263Z,100450.82
2018-08-11T15:26:28.137Z,100448.75
2018-08-11T15:28:56.790Z,100446.60
2018-08-11T15:31:25.381Z,100446.41
2018-08-11T15:33:53.960Z,100449.08
2018-08-11T15:36:22.594Z,100439.50
2018-08-11T15:38:51.111Z,100434.95
2018-08-11T15:41:19.803Z,100425.78
2018-08-11T15:43:48.400Z,100428.43
2018-08-11T15:46:17.443Z,100426.25
2018-08-11T15:48:46.104Z,100417.55
2018-08-11T15:51:15.267Z,100428.03
2018-08-11T15:53:44.126Z,100421.47
2018-08-11T15:56:12.791Z,100421.64
2018-08-11T15:58:41.326Z,100410.16
2018-08-11T16:01:09.891Z,100413.34
2018-08-11T16:03:38.570Z,100420.56
2018-08-11T16:06:07.150Z,100418.22
2018-08-11T16:08:35.754Z,100411.95
2018-08-11T16:11:04.597Z,100406.83
2018-08-11T16:13:33.179Z,100409.51
2018-08-11T16:16:02.272Z,100402.44
2018-08-11T16:18:30.838Z,100398.47
2018-08-11T16:20:59.386Z,100398.85
2018-08-11T16:23:28.738Z,100399.14
2018-08-11T16:25:57.252Z,100401.53
2018-08-11T16:28:25.904Z,100401.19
2018-08-11T16:30:54.487Z,100399.10
2018-08-11T16:33:22.998Z,100385.86
2018-08-11T16:35:51.665Z,100390.07
2018-08-11T16:38:20.283Z,100388.81
2018-08-11T16:40:48.888Z,100384.65
2018-08-11T16:43:17.504Z,100386.63
2018-08-11T16:45:46.110Z,100388.11
2018-08-11T16:48:15.318Z,100391.22
2018-08-11T16:50:44.071Z,100386.83
2018-08-11T16:53:12.759Z,100377.95
2018-08-11T16:55:41.266Z,100378.25
2018-08-11T16:58:09.834Z,100379.79
2018-08-11T17:00:38.480Z,100375.00
2018-08-11T17:03:07.190Z,100375.56
2018-08-11T17:05:35.699Z,100372.80
2018-08-11T17:08:04.338Z,100379.64
2018-08-11T17:10:32.859Z,100368.93
2018-08-11T17:13:01.569Z,100366.69
2018-08-11T17:15:30.130Z,100365.23
2018-08-11T17:17:58.830Z,100364.72
2018-08-11T17:20:27.956Z,100374.88
2018-08-11T17:22:56.526Z,100383.75
2018-08-11T17:25:25.157Z,100371.63
2018-08-11T17:27:54.395Z,100377.66
2018-08-11T17:30:22.941Z,100375.35
2018-08-11T17:32:51.623Z,100368.23
2018-08-11T17:35:20.224Z,100372.38
2018-08-11T17:37:49.051Z,100371.76
2018-08-11T17:40:17.595Z,100368.53
2018-08-11T17:42:46.321Z,100370.20
2018-08-11T17:45:15.249Z,100367.89
2018-08-11T17:47:43.834Z,100246.68
2018-08-11T17:50:12.469Z,100359.23
2018-08-11T17:52:41.048Z,100365.06
2018-08-11T17:55:09.686Z,100371.57
2018-08-11T17:57:38.586Z,100365.56
2018-08-11T18:00:07.205Z,100371.45
2018-08-11T18:02:36.050Z,100369.19
2018-08-11T18:05:05.117Z,100370.45
2018-08-11T18:07:33.842Z,100375.98
2018-08-11T18:10:02.475Z,100380.27
2018-08-11T18:12:31.097Z,100383.82
2018-08-11T18:14:59.883Z,100378.53
2018-08-11T18:17:28.568Z,100380.88
2018-08-11T18:19:57.311Z,100369.80
2018-08-11T18:22:25.838Z,100379.48
2018-08-11T18:24:55.370Z,100366.30
2018-08-11T18:27:24.829Z,100375.83
2018-08-11T18:29:53.538Z,100370.06
2018-08-11T18:32:22.217Z,100368.81
2018-08-11T18:34:51.338Z,100364.59
2018-08-11T18:37:19.915Z,100370.91
2018-08-11T18:39:48.579Z,100370.19
2018-08-11T18:42:17.683Z,100375.78
2018-08-11T18:44:46.357Z,100384.41
2018-08-11T18:47:14.874Z,100394.39
2018-08-11T18:49:43.466Z,100398.16
2018-08-11T18:52:12.854Z,100388.98
2018-08-11T18:54:41.391Z,100383.88
2018-08-11T18:57:10.019Z,100387.91
2018-08-11T18:59:38.674Z,100395.80
2018-08-11T19:02:07.427Z,100390.23
2018-08-11T19:04:36.118Z,100386.37
2018-08-11T19:07:04.783Z,100383.47
2018-08-11T19:09:33.621Z,100387.48
2018-08-11T19:12:02.309Z,100391.50
2018-08-11T19:14:30.992Z,100390.63
2018-08-11T19:16:59.754Z,100395.61
2018-08-11T19:19:28.773Z,100407.45
2018-08-11T19:21:57.501Z,100404.81
2018-08-11T19:24:26.096Z,100418.83
2018-08-11T19:26:54.798Z,100411.70
2018-08-11T19:29:23.335Z,100408.30
2018-08-11T19:31:51.982Z,100402.00
2018-08-11T19:34:20.499Z,100400.20
2018-08-11T19:36:49.268Z,100405.28
2018-08-11T19:39:18.004Z,100397.42
2018-08-11T19:41:46.635Z,100390.41
2018-08-11T19:44:15.422Z,100396.56
2018-08-11T19:46:44.043Z,100388.42
2018-08-11T19:49:12.689Z,100392.06
2018-08-11T19:51:41.432Z,100397.00
2018-08-11T19:54:10.090Z,100397.12
2018-08-11T19:56:38.635Z,100406.95
2018-08-11T19:59:07.253Z,100409.22
2018-08-11T20:01:35.824Z,100341.05
2018-08-11T20:04:04.462Z,100404.28
2018-08-11T20:06:33.170Z,100408.27
2018-08-11T20:09:01.863Z,100408.86
2018-08-11T20:11:30.418Z,100405.46
2018-08-11T20:13:59.952Z,100412.97
2018-08-11T20:16:28.571Z,100407.66
2018-08-11T20:18:57.271Z,100407.41
2018-08-11T20:21:25.851Z,100403.89
2018-08-11T20:23:54.479Z,100403.27
2018-08-11T20:26:23.185Z,100401.59
2018-08-11T20:28:51.770Z,100405.46
2018-08-11T20:31:20.382Z,100406.79
2018-08-11T20:33:48.971Z,100407.27
2018-08-11T20:36:17.550Z,100402.80
2018-08-11T20:38:46.189Z,100398.57
2018-08-11T20:41:14.858Z,100403.66
2018-08-11T20:43:43.458Z,100408.24
2018-08-11T20:46:12.178Z,100409.92
2018-08-11T20:48:40.826Z,100418.03
2018-08-11T20:51:09.470Z,100416.93
2018-08-11T20:53:38.013Z,100419.47
2018-08-11T20:56:06.678Z,100415.55
2018-08-11T20:58:35.657Z,100422.59
2018-08-11T21:01:04.437Z,100423.42
2018-08-11T21:03:33.087Z,100419.44
2018-08-11T21:06:01.836Z,100417.16
2018-08-11T21:08:30.516Z,100413.17
2018-08-11T21:10:59.126Z,100417.28
2018-08-11T21:13:27.762Z,100415.20
2018-08-11T21:15:56.367Z,100416.02
2018-08-11T21:18:25.530Z,100416.17
2018-08-11T21:20:54.079Z,100419.41
2018-08-11T21:23:22.668Z,100410.80
2018-08-11T21:25:51.308Z,100417.10
2018-08-11T21:28:19.831Z,100409.23
2018-08-11T21:30:48.477Z,100407.51
2018-08-11T21:33:17.100Z,100408.24
2018-08-11T21:35:45.744Z,100412.34
2018-08-11T21:38:14.430Z,100414.14
2018-08-11T21:40:43.019Z,100398.12
2018-08-11T21:43:11.664Z,100415.42
2018-08-11T21:45:40.250Z,100418.81
2018-08-11T21:48:08.854Z,100420.81
2018-08-11T21:50:37.448Z,100409.19
2018-08-11T21:53:06.043Z,100415.81
2018-08-11T21:55:34.635Z,100412.77
2018-08-11T21:58:03.245Z,100338.42
2018-08-11T22:00:35.009Z,100415.61
2018-08-11T22:03:03.900Z,100416.16
2018-08-11T22:05:32.528Z,100412.03
2018-08-11T22:08:02.290Z,100405.84
2018-08-11T22:10:31.390Z,100415.36
2018-08-11T22:13:00.021Z,100408.19
2018-08-11T22:15:28.643Z,100413.47
2018-08-11T22:17:57.288Z,100408.27
2018-08-11T22:20:25.974Z,100405.83
2018-08-11T22:22:54.595Z,100403.53
2018-08-11T22:25:23.134Z,100407.52
2018-08-11T22:27:51.826Z,100408.70
2018-08-11T22:30:20.426Z,100404.58
2018-08-11T22:32:49.046Z,100407.67
2018-08-11T22:35:17.674Z,100414.14
2018-08-11T22:37:46.322Z,100408.33
2018-08-11T22:40:14.931Z,100409.38
2018-08-11T22:42:43.626Z,100410.80
2018-08-11T22:45:12.824Z,100408.76
2018-08-11T22:47:41.512Z,100410.66
2018-08-11T22:50:12.916Z,100410.88
2018-08-11T22:52:41.693Z,100404.67
2018-08-11T22:55:10.686Z,100403.77
2018-08-11T22:57:39.249Z,100406.85
2018-08-11T23:00:12.819Z,100407.13
2018-08-11T23:02:41.608Z,100406.23
2018-08-11T23:05:10.179Z,100412.52
2018-08-11T23:07:39.235Z,100396.45
2018-08-11T23:10:09.699Z,100397.98
2018-08-11T23:12:38.335Z,100398.80
2018-08-11T23:15:09.271Z,100406.37
2018-08-11T23:17:37.963Z,100404.52
2018-08-11T23:20:07.271Z,100406.80
2018-08-11T23:22:36.051Z,100399.57
2018-08-11T23:25:05.509Z,100411.55
2018-08-11T23:27:34.339Z,100416.03
2018-08-11T23:30:03.086Z,100416.80
2018-08-11T23:32:31.599Z,100421.19
2018-08-11T23:35:00.198Z,100420.75
2018-08-11T23:37:28.834Z,100427.88
2018-08-11T23:39:57.417Z,100424.87
2018-08-11T23:42:26.045Z,100431.33
2018-08-11T23:44:54.599Z,100432.95
2018-08-11T23:47:23.266Z,100422.25
2018-08-11T23:49:51.890Z,100423.41
2018-08-11T23:52:20.518Z,100423.60
2018-08-11T23:54:49.134Z,100417.77
2018-08-11T23:57:17.806Z,100419.84
2018-08-11T23:59:46.592Z,100417.86
